createdAt,value
2023-04-23T00:00:21.606Z,12.90
2023-04-23T00:03:31.482Z,12.77
2023-04-23T00:06:39.404Z,12.65
2023-04-23T00:09:49.538Z,12.36
2023-04-23T00:12:59.195Z,12.20
2023-04-23T00:16:05.928Z,12.08
2023-04-23T00:19:12.454Z,11.99
2023-04-23T00:22:20.463Z,11.91
2023-04-23T00:25:29.522Z,11.78
2023-04-23T00:28:35.353Z,11.76
2023-04-23T00:31:41.930Z,11.77
2023-04-23T00:34:48.948Z,11.77
2023-04-23T00:37:55.872Z,11.74
2023-04-23T00:41:04.247Z,11.75
2023-04-23T00:44:11.071Z,11.82
2023-04-23T00:47:20.812Z,11.94
2023-04-23T00:50:27.707Z,12.00
2023-04-23T00:53:33.612Z,12.10
2023-04-23T00:56:43.108Z,12.22
2023-04-23T00:59:49.870Z,12.31
2023-04-23T01:02:58.632Z,12.42
2023-04-23T01:06:04.660Z,12.54
2023-04-23T01:09:13.084Z,12.60
2023-04-23T01:12:21.809Z,12.56
2023-04-23T01:15:28.255Z,12.61
2023-04-23T01:18:34.403Z,12.55
2023-04-23T01:21:43.813Z,12.54
2023-04-23T01:24:53.000Z,12.42
2023-04-23T01:28:00.701Z,12.24
2023-04-23T01:31:07.414Z,12.03
2023-04-23T01:34:14.623Z,11.77
2023-04-23T01:37:21.587Z,11.61
2023-04-23T01:40:30.757Z,11.52
2023-04-23T01:43:37.531Z,11.42
2023-04-23T01:46:44.038Z,11.37
2023-04-23T01:49:49.919Z,11.26
2023-04-23T01:52:56.659Z,11.18
2023-04-23T01:56:06.829Z,11.07
2023-04-23T01:59:13.379Z,10.98
2023-04-23T02:02:19.979Z,10.95
2023-04-23T02:05:31.554Z,10.93
2023-04-23T02:08:37.176Z,10.88
2023-04-23T02:11:46.697Z,10.82
2023-04-23T02:14:52.451Z,10.75
2023-04-23T02:17:59.086Z,10.71
2023-04-23T02:21:04.890Z,10.65
2023-04-23T02:24:11.587Z,10.57
2023-04-23T02:27:20.086Z,10.55
2023-04-23T02:30:26.709Z,10.46
2023-04-23T02:33:32.383Z,10.35
2023-04-23T02:36:39.449Z,10.26
2023-04-23T02:39:45.087Z,10.20
2023-04-23T02:42:54.137Z,10.16
2023-04-23T02:46:00.007Z,10.17
2023-04-23T02:49:07.489Z,10.12
2023-04-23T02:52:13.695Z,10.11
2023-04-23T02:55:20.452Z,10.02
2023-04-23T02:58:28.680Z,9.94
2023-04-23T03:01:37.500Z,9.89
2023-04-23T03:04:45.425Z,9.81
2023-04-23T03:07:52.028Z,9.78
2023-04-23T03:10:57.880Z,9.70
2023-04-23T03:14:07.108Z,9.58
2023-04-23T03:17:13.639Z,9.50
2023-04-23T03:20:20.355Z,9.39
2023-04-23T03:23:25.901Z,9.33
2023-04-23T03:26:32.346Z,9.27
2023-04-23T03:29:40.570Z,9.26
2023-04-23T03:32:47.097Z,9.27
2023-04-23T03:35:52.741Z,9.22
2023-04-23T03:39:06.011Z,9.24
2023-04-23T03:42:23.975Z,9.25
2023-04-23T03:45:36.100Z,9.14
2023-04-23T03:48:42.262Z,9.09
2023-04-23T03:51:58.744Z,9.11
2023-04-23T03:55:12.454Z,9.12
2023-04-23T03:58:25.181Z,9.17
2023-04-23T04:01:36.371Z,9.20
2023-04-23T04:04:43.401Z,9.25
2023-04-23T04:07:50.917Z,9.29
2023-04-23T04:11:01.690Z,9.28
2023-04-23T04:14:10.057Z,9.27
2023-04-23T04:17:20.444Z,9.25
2023-04-23T04:20:29.261Z,9.29
2023-04-23T04:23:36.698Z,9.33
2023-04-23T04:26:43.844Z,9.36
2023-04-23T04:29:50.526Z,9.39
2023-04-23T04:32:58.986Z,9.41
2023-04-23T04:36:06.136Z,9.44
2023-04-23T04:39:13.766Z,9.44
2023-04-23T04:42:20.548Z,9.55
2023-04-23T04:45:26.383Z,9.63
2023-04-23T04:48:35.285Z,9.74
2023-04-23T04:51:43.056Z,9.83
2023-04-23T04:54:49.454Z,9.83
2023-04-23T04:57:55.351Z,9.88
2023-04-23T05:01:02.612Z,9.91
2023-04-23T05:04:11.104Z,10.01
2023-04-23T05:07:18.043Z,10.11
2023-04-23T05:10:24.782Z,10.22
2023-04-23T05:13:31.151Z,10.35
2023-04-23T05:16:37.468Z,10.44
2023-04-23T05:19:46.551Z,10.60
2023-04-23T05:22:52.433Z,10.76
2023-04-23T05:25:59.182Z,10.94
2023-04-23T05:29:04.814Z,11.09
2023-04-23T05:32:11.361Z,11.17
2023-04-23T05:35:19.878Z,11.26
2023-04-23T05:38:26.424Z,11.34
2023-04-23T05:41:32.137Z,11.47
2023-04-23T05:44:38.797Z,11.57
2023-04-23T05:47:44.787Z,11.66
2023-04-23T05:50:56.894Z,11.67
2023-04-23T05:54:03.008Z,11.82
2023-04-23T05:57:09.511Z,11.93
2023-04-23T06:00:17.265Z,12.00
2023-04-23T06:03:24.301Z,12.12
2023-04-23T06:06:32.716Z,12.26
2023-04-23T06:09:39.157Z,12.37
2023-04-23T06:12:44.943Z,12.42
2023-04-23T06:15:51.403Z,12.54
2023-04-23T06:18:57.078Z,12.68
2023-04-23T06:22:06.471Z,12.81
2023-04-23T06:25:13.089Z,13.01
2023-04-23T06:28:19.408Z,13.14
2023-04-23T06:31:51.301Z,13.37
2023-04-23T06:35:01.374Z,13.54
2023-04-23T06:38:10.045Z,13.66
2023-04-23T06:41:17.081Z,13.80
2023-04-23T06:44:22.709Z,13.98
2023-04-23T06:47:36.976Z,14.11
2023-04-23T06:50:43.175Z,14.30
2023-04-23T06:53:52.466Z,14.51
2023-04-23T06:56:58.346Z,14.79
2023-04-23T07:00:05.706Z,15.16
2023-04-23T07:03:16.056Z,15.68
2023-04-23T07:06:22.742Z,16.14
2023-04-23T07:09:32.165Z,16.63
2023-04-23T07:12:39.380Z,17.21
2023-04-23T07:15:46.994Z,17.64
2023-04-23T07:18:53.697Z,18.04
2023-04-23T07:21:59.291Z,18.41
2023-04-23T07:25:09.094Z,18.88
2023-04-23T07:28:14.861Z,19.63
2023-04-23T07:31:22.309Z,20.16
2023-04-23T07:34:28.143Z,20.79
2023-04-23T07:37:34.478Z,21.06
2023-04-23T07:40:42.666Z,21.19
2023-04-23T07:43:49.472Z,21.44
2023-04-23T07:46:55.705Z,21.65
2023-04-23T07:50:02.214Z,22.01
2023-04-23T07:53:08.186Z,22.62
2023-04-23T07:56:17.257Z,23.10
2023-04-23T07:59:23.109Z,23.34
2023-04-23T08:02:29.789Z,23.78
2023-04-23T08:05:37.586Z,23.73
2023-04-23T08:08:44.372Z,24.23
2023-04-23T08:11:53.062Z,24.65
2023-04-23T08:15:00.095Z,24.97
2023-04-23T08:18:14.671Z,25.57
2023-04-23T08:21:21.153Z,25.78
2023-04-23T08:24:27.122Z,25.88
2023-04-23T08:27:36.368Z,25.86
2023-04-23T08:30:42.305Z,25.91
2023-04-23T08:33:50.260Z,25.70
2023-04-23T08:36:55.820Z,26.15
2023-04-23T08:40:02.217Z,26.29
2023-04-23T08:43:19.563Z,26.33
2023-04-23T08:46:28.392Z,26.13
2023-04-23T08:49:37.674Z,26.55
2023-04-23T08:52:50.096Z,26.50
2023-04-23T08:55:57.409Z,26.63
2023-04-23T08:59:06.946Z,27.15
2023-04-23T09:02:13.114Z,27.64
2023-04-23T09:05:22.688Z,27.79
2023-04-23T09:08:28.369Z,28.26
2023-04-23T09:11:35.579Z,28.59
2023-04-23T09:14:43.970Z,28.73
2023-04-23T09:17:51.492Z,29.40
2023-04-23T09:20:57.355Z,29.89
2023-04-23T09:24:08.308Z,30.86
2023-04-23T09:27:13.942Z,31.55
2023-04-23T09:30:25.641Z,32.07
2023-04-23T09:33:33.220Z,32.79
2023-04-23T09:36:40.808Z,32.77
2023-04-23T09:39:46.841Z,33.31
2023-04-23T09:42:56.075Z,33.94
2023-04-23T09:46:04.530Z,34.47
2023-04-23T09:49:13.340Z,34.52
2023-04-23T09:52:19.881Z,34.70
2023-04-23T09:55:35.970Z,34.41
2023-04-23T09:58:41.990Z,33.94
2023-04-23T10:01:51.365Z,34.35
2023-04-23T10:05:06.912Z,33.97
2023-04-23T10:08:27.747Z,33.67
2023-04-23T10:11:33.822Z,33.86
2023-04-23T10:14:45.483Z,33.74
2023-04-23T10:17:55.825Z,32.98
2023-04-23T10:21:06.293Z,33.04
2023-04-23T10:24:14.437Z,32.69
2023-04-23T10:27:36.850Z,33.48
2023-04-23T10:30:52.703Z,33.91
2023-04-23T10:34:06.351Z,34.70
2023-04-23T10:37:13.400Z,35.12
2023-04-23T10:40:37.090Z,35.05
2023-04-23T10:43:43.633Z,35.39
2023-04-23T10:47:02.368Z,36.02
2023-04-23T10:50:29.170Z,35.33
2023-04-23T10:53:36.024Z,35.24
2023-04-23T10:56:42.301Z,35.08
2023-04-23T10:59:59.145Z,35.27
2023-04-23T11:03:05.767Z,34.91
2023-04-23T11:06:22.392Z,35.05
2023-04-23T11:09:50.174Z,33.81
2023-04-23T11:12:59.427Z,32.64
2023-04-23T11:16:19.840Z,31.57
2023-04-23T11:19:26.388Z,31.57
2023-04-23T11:22:39.229Z,32.18
2023-04-23T11:25:48.207Z,33.08
2023-04-23T11:28:59.732Z,33.83
2023-04-23T11:32:10.743Z,34.39
2023-04-23T11:35:19.160Z,34.36
2023-04-23T11:38:35.058Z,34.49
2023-04-23T11:41:40.672Z,34.94
2023-04-23T11:44:50.543Z,34.98
2023-04-23T11:47:59.595Z,35.04
2023-04-23T11:51:08.973Z,34.52
2023-04-23T11:54:20.153Z,33.31
2023-04-23T11:57:26.647Z,32.99
2023-04-23T12:00:32.353Z,33.14
2023-04-23T12:03:38.920Z,32.23
2023-04-23T12:06:47.976Z,31.50
2023-04-23T12:10:03.253Z,30.51
2023-04-23T12:13:08.993Z,29.81
2023-04-23T12:16:15.553Z,29.57
2023-04-23T12:19:24.452Z,29.97
2023-04-23T12:22:31.532Z,30.09
2023-04-23T12:25:43.895Z,30.63
2023-04-23T12:28:50.758Z,30.99
2023-04-23T12:32:01.528Z,31.93
2023-04-23T12:35:12.443Z,32.55
2023-04-23T12:38:29.212Z,33.38
2023-04-23T12:41:41.418Z,33.63
2023-04-23T12:44:51.809Z,33.82
2023-04-23T12:47:58.353Z,33.65
2023-04-23T12:51:06.864Z,33.47
2023-04-23T12:54:15.333Z,33.08
2023-04-23T12:57:24.698Z,32.84
2023-04-23T13:00:31.252Z,32.45
2023-04-23T13:03:37.040Z,32.51
2023-04-23T13:06:44.276Z,32.93
2023-04-23T13:09:49.834Z,33.45
2023-04-23T13:12:58.894Z,34.07
2023-04-23T13:16:04.607Z,33.87
2023-04-23T13:19:11.010Z,34.12
2023-04-23T13:22:16.711Z,33.72
2023-04-23T13:25:23.183Z,32.63
2023-04-23T13:28:31.389Z,31.81
2023-04-23T13:31:38.034Z,31.58
2023-04-23T13:34:43.564Z,31.24
2023-04-23T13:37:49.982Z,31.03
2023-04-23T13:40:55.817Z,30.64
2023-04-23T13:44:04.815Z,30.69
2023-04-23T13:47:10.368Z,30.91
2023-04-23T13:50:16.770Z,30.70
2023-04-23T13:53:22.470Z,30.31
2023-04-23T13:56:30.796Z,30.01
2023-04-23T13:59:39.628Z,29.82
2023-04-23T14:02:46.306Z,29.80
2023-04-23T14:05:52.354Z,29.92
2023-04-23T14:08:58.752Z,29.89
2023-04-23T14:12:04.394Z,30.22
2023-04-23T14:15:15.045Z,30.14
2023-04-23T14:18:20.523Z,30.15
2023-04-23T14:21:27.051Z,30.43
2023-04-23T14:24:41.835Z,30.43
2023-04-23T14:27:54.260Z,30.39
2023-04-23T14:31:05.301Z,30.30
2023-04-23T14:34:11.946Z,29.78
2023-04-23T14:37:17.961Z,29.25
2023-04-23T14:40:24.455Z,28.28
2023-04-23T14:43:31.237Z,27.87
2023-04-23T14:46:41.936Z,27.18
2023-04-23T14:49:47.495Z,27.05
2023-04-23T14:52:54.400Z,26.81
2023-04-23T14:55:59.971Z,26.76
2023-04-23T14:59:06.562Z,26.74
2023-04-23T15:02:15.039Z,27.00
2023-04-23T15:05:21.594Z,27.22
2023-04-23T15:08:27.450Z,27.17
2023-04-23T15:11:34.439Z,27.35
2023-04-23T15:14:41.381Z,27.52
2023-04-23T15:17:50.840Z,27.47
2023-04-23T15:20:58.933Z,27.31
2023-04-23T15:24:05.651Z,27.24
2023-04-23T15:27:15.160Z,27.58
2023-04-23T15:30:23.154Z,28.05
2023-04-23T15:33:32.912Z,28.17
2023-04-23T15:36:39.539Z,28.05
2023-04-23T15:39:45.172Z,28.11
2023-04-23T15:42:52.394Z,28.17
2023-04-23T15:45:59.162Z,28.16
2023-04-23T15:49:08.409Z,27.90
2023-04-23T15:52:14.869Z,27.50
2023-04-23T15:55:22.055Z,27.39
2023-04-23T15:58:27.629Z,27.37
2023-04-23T16:01:34.318Z,27.20
2023-04-23T16:04:43.079Z,27.08
2023-04-23T16:07:49.774Z,27.02
2023-04-23T16:10:57.230Z,26.50
2023-04-23T16:14:03.933Z,26.35
2023-04-23T16:17:09.705Z,26.17
2023-04-23T16:20:18.822Z,26.13
2023-04-23T16:23:24.408Z,26.05
2023-04-23T16:26:31.988Z,26.03
2023-04-23T16:29:37.583Z,26.05
2023-04-23T16:32:44.047Z,25.84
2023-04-23T16:35:52.879Z,25.59
2023-04-23T16:38:59.914Z,25.15
2023-04-23T16:42:05.776Z,24.94
2023-04-23T16:45:13.338Z,24.89
2023-04-23T16:48:20.080Z,24.89
2023-04-23T16:51:29.965Z,25.05
2023-04-23T16:54:36.349Z,24.96
2023-04-23T16:57:42.775Z,24.88
2023-04-23T17:00:49.127Z,24.59
2023-04-23T17:03:55.739Z,24.47
2023-04-23T17:07:04.353Z,24.39
2023-04-23T17:10:12.819Z,24.29
2023-04-23T17:13:18.349Z,23.95
2023-04-23T17:16:27.071Z,23.63
2023-04-23T17:19:33.233Z,23.25
2023-04-23T17:22:42.678Z,23.29
2023-04-23T17:25:48.615Z,23.27
2023-04-23T17:28:55.124Z,23.14
2023-04-23T17:32:03.055Z,23.02
2023-04-23T17:35:11.544Z,23.04
2023-04-23T17:38:20.792Z,22.85
2023-04-23T17:41:27.253Z,22.42
2023-04-23T17:44:32.834Z,22.05
2023-04-23T17:47:41.067Z,21.86
2023-04-23T17:50:47.550Z,21.88
2023-04-23T17:53:56.644Z,21.91
2023-04-23T17:57:02.260Z,21.94
2023-04-23T18:00:13.911Z,21.95
2023-04-23T18:03:21.994Z,22.01
2023-04-23T18:06:29.187Z,22.13
2023-04-23T18:09:37.887Z,22.16
2023-04-23T18:12:45.104Z,22.16
2023-04-23T18:15:51.060Z,22.03
2023-04-23T18:18:57.588Z,21.99
2023-04-23T18:22:03.949Z,21.93
2023-04-23T18:25:13.846Z,21.91
2023-04-23T18:28:19.625Z,21.86
2023-04-23T18:31:26.303Z,21.76
2023-04-23T18:34:40.117Z,21.57
2023-04-23T18:37:56.233Z,21.48
2023-04-23T18:41:04.947Z,21.31
2023-04-23T18:44:13.312Z,21.21
2023-04-23T18:47:23.100Z,21.06
2023-04-23T18:50:40.323Z,20.88
2023-04-23T18:53:46.338Z,20.68
2023-04-23T18:56:56.214Z,20.55
2023-04-23T19:00:01.832Z,20.45
2023-04-23T19:03:23.415Z,20.31
2023-04-23T19:06:31.607Z,20.12
2023-04-23T19:09:38.224Z,20.03
2023-04-23T19:12:46.836Z,19.96
2023-04-23T19:15:53.485Z,19.91
2023-04-23T19:18:59.843Z,19.81
2023-04-23T19:22:06.438Z,19.62
2023-04-23T19:25:13.299Z,19.29
2023-04-23T19:28:22.314Z,19.14
2023-04-23T19:31:27.990Z,19.04
2023-04-23T19:34:34.593Z,18.75
2023-04-23T19:37:40.128Z,18.62
2023-04-23T19:40:46.640Z,18.58
2023-04-23T19:43:55.356Z,18.57
2023-04-23T19:47:02.247Z,18.56
2023-04-23T19:50:09.978Z,18.49
2023-04-23T19:53:16.822Z,18.37
2023-04-23T19:56:23.545Z,18.20
2023-04-23T19:59:32.596Z,18.11
2023-04-23T20:02:39.133Z,17.89
2023-04-23T20:05:46.504Z,17.72
2023-04-23T20:09:04.858Z,17.65
2023-04-23T20:12:11.517Z,17.70
2023-04-23T20:15:24.546Z,17.76
2023-04-23T20:18:34.527Z,17.76
2023-04-23T20:21:42.889Z,17.61
2023-04-23T20:24:49.423Z,17.64
2023-04-23T20:27:55.335Z,17.53
2023-04-23T20:31:04.444Z,17.36
2023-04-23T20:34:11.215Z,17.39
2023-04-23T20:37:21.716Z,17.40
2023-04-23T20:40:27.969Z,17.47
2023-04-23T20:43:38.958Z,17.56
2023-04-23T20:46:47.590Z,17.62
2023-04-23T20:49:54.013Z,17.60
2023-04-23T20:52:59.521Z,17.60
2023-04-23T20:56:05.899Z,17.64
2023-04-23T20:59:11.791Z,17.58
2023-04-23T21:02:21.196Z,17.49
2023-04-23T21:05:26.710Z,17.38
2023-04-23T21:08:33.254Z,17.24
2023-04-23T21:11:39.392Z,17.18
2023-04-23T21:14:47.637Z,17.13
2023-04-23T21:17:55.831Z,17.09
2023-04-23T21:21:02.730Z,17.08
2023-04-23T21:24:08.743Z,17.07
2023-04-23T21:27:21.968Z,16.98
2023-04-23T21:30:42.353Z,16.93
2023-04-23T21:33:51.664Z,16.90
2023-04-23T21:36:57.341Z,16.82
2023-04-23T21:40:03.782Z,16.78
2023-04-23T21:43:10.332Z,16.69
2023-04-23T21:46:16.905Z,16.62
2023-04-23T21:49:25.240Z,16.62
2023-04-23T21:52:31.784Z,16.51
2023-04-23T21:55:37.544Z,16.40
2023-04-23T21:58:44.204Z,16.29
2023-04-23T22:01:49.763Z,16.11
2023-04-23T22:04:58.967Z,16.13
2023-04-23T22:08:07.055Z,16.00
2023-04-23T22:11:14.164Z,15.92
2023-04-23T22:14:19.727Z,15.90
2023-04-23T22:17:26.628Z,15.85
2023-04-23T22:20:35.122Z,15.83
2023-04-23T22:23:41.754Z,15.85
2023-04-23T22:26:47.464Z,15.81
2023-04-23T22:29:55.296Z,15.78
2023-04-23T22:33:00.876Z,15.69
2023-04-23T22:36:10.467Z,15.61
2023-04-23T22:39:16.132Z,15.48
2023-04-23T22:42:22.585Z,15.43
2023-04-23T22:45:28.596Z,15.31
2023-04-23T22:48:34.976Z,15.33
2023-04-23T22:51:44.053Z,15.32
2023-04-23T22:54:50.662Z,15.25
2023-04-23T22:57:56.305Z,15.20
2023-04-23T23:01:02.724Z,15.14
2023-04-23T23:04:08.647Z,14.92
2023-04-23T23:07:18.001Z,14.73
2023-04-23T23:10:23.771Z,14.54
2023-04-23T23:13:30.284Z,14.47
2023-04-23T23:16:37.717Z,14.52
2023-04-23T23:19:44.437Z,14.66
2023-04-23T23:22:53.167Z,14.80
2023-04-23T23:26:00.210Z,14.88
2023-04-23T23:29:05.934Z,14.90
2023-04-23T23:32:12.706Z,14.91
2023-04-23T23:35:18.452Z,14.92
2023-04-23T23:38:27.835Z,14.95
2023-04-23T23:41:33.490Z,14.90
2023-04-23T23:44:39.996Z,14.77
2023-04-23T23:47:45.752Z,14.72
2023-04-23T23:50:52.343Z,14.72
2023-04-23T23:54:00.514Z,14.62
2023-04-23T23:57:07.174Z,14.61
